sensor_id;sensor_type;location;lat;lon;timestamp;temperature;humidity
10660;DHT22;5378;53.206;13.316;2024-01-11T00:00:57;-0.30;99.90
10660;DHT22;5378;53.206;13.316;2024-01-11T00:03:44;-0.30;99.90
10660;DHT22;5378;53.206;13.316;2024-01-11T00:06:32;-0.30;99.90
10660;DHT22;5378;53.206;13.316;2024-01-11T00:09:18;-0.30;99.90
10660;DHT22;5378;53.206;13.316;2024-01-11T00:12:06;-0.30;99.90
10660;DHT22;5378;53.206;13.316;2024-01-11T00:14:54;-0.50;99.90
10660;DHT22;5378;53.206;13.316;2024-01-11T00:17:42;-0.30;99.90
10660;DHT22;5378;53.206;13.316;2024-01-11T00:20:29;-0.30;99.90
10660;DHT22;5378;53.206;13.316;2024-01-11T00:23:16;-0.20;99.90
10660;DHT22;5378;53.206;13.316;2024-01-11T00:26:02;-0.30;99.90
10660;DHT22;5378;53.206;13.316;2024-01-11T00:28:49;-0.20;99.90
10660;DHT22;5378;53.206;13.316;2024-01-11T00:31:38;-0.30;99.90
10660;DHT22;5378;53.206;13.316;2024-01-11T00:34:25;-0.30;99.90
10660;DHT22;5378;53.206;13.316;2024-01-11T00:37:12;-0.40;99.90
10660;DHT22;5378;53.206;13.316;2024-01-11T00:39:59;-0.20;99.90
10660;DHT22;5378;53.206;13.316;2024-01-11T00:42:46;-0.20;99.90
10660;DHT22;5378;53.206;13.316;2024-01-11T00:45:32;-0.20;99.90
10660;DHT22;5378;53.206;13.316;2024-01-11T00:48:22;-0.10;99.90
10660;DHT22;5378;53.206;13.316;2024-01-11T00:51:09;0.00;99.90
10660;DHT22;5378;53.206;13.316;2024-01-11T00:53:56;-0.10;99.90
10660;DHT22;5378;53.206;13.316;2024-01-11T00:56:43;-0.10;99.90
10660;DHT22;5378;53.206;13.316;2024-01-11T00:59:30;-0.20;99.90
10660;DHT22;5378;53.206;13.316;2024-01-11T01:02:19;-0.30;99.90
10660;DHT22;5378;53.206;13.316;2024-01-11T01:05:08;-0.20;99.90
10660;DHT22;5378;53.206;13.316;2024-01-11T01:07:55;-0.20;99.90
10660;DHT22;5378;53.206;13.316;2024-01-11T01:10:42;-0.10;99.90
10660;DHT22;5378;53.206;13.316;2024-01-11T01:13:30;-0.10;99.90
10660;DHT22;5378;53.206;13.316;2024-01-11T01:16:16;-0.10;99.90
10660;DHT22;5378;53.206;13.316;2024-01-11T01:19:04;-0.20;99.90
10660;DHT22;5378;53.206;13.316;2024-01-11T01:21:52;-0.10;99.90
10660;DHT22;5378;53.206;13.316;2024-01-11T01:24:39;-0.10;99.90
10660;DHT22;5378;53.206;13.316;2024-01-11T01:27:26;0.00;99.90
10660;DHT22;5378;53.206;13.316;2024-01-11T01:30:13;-0.10;99.90
10660;DHT22;5378;53.206;13.316;2024-01-11T01:33:00;-0.10;99.90
10660;DHT22;5378;53.206;13.316;2024-01-11T01:35:47;-0.10;99.90
10660;DHT22;5378;53.206;13.316;2024-01-11T01:38:36;0.00;99.90
10660;DHT22;5378;53.206;13.316;2024-01-11T01:41:23;-0.10;99.90
10660;DHT22;5378;53.206;13.316;2024-01-11T01:44:10;0.00;99.90
10660;DHT22;5378;53.206;13.316;2024-01-11T01:46:57;0.10;99.90
10660;DHT22;5378;53.206;13.316;2024-01-11T01:49:45;0.10;99.90
10660;DHT22;5378;53.206;13.316;2024-01-11T01:52:34;0.20;99.90
10660;DHT22;5378;53.206;13.316;2024-01-11T01:55:25;0.30;99.90
10660;DHT22;5378;53.206;13.316;2024-01-11T01:58:13;0.40;99.90
10660;DHT22;5378;53.206;13.316;2024-01-11T02:01:00;0.30;99.90
10660;DHT22;5378;53.206;13.316;2024-01-11T02:03:49;0.20;99.90
10660;DHT22;5378;53.206;13.316;2024-01-11T02:06:37;0.30;99.90
10660;DHT22;5378;53.206;13.316;2024-01-11T02:09:24;0.20;99.90
10660;DHT22;5378;53.206;13.316;2024-01-11T02:12:14;0.10;99.90
10660;DHT22;5378;53.206;13.316;2024-01-11T02:15:01;0.10;99.90
10660;DHT22;5378;53.206;13.316;2024-01-11T02:17:51;0.10;99.90
10660;DHT22;5378;53.206;13.316;2024-01-11T02:20:38;0.00;99.90
10660;DHT22;5378;53.206;13.316;2024-01-11T02:23:26;0.00;99.90
10660;DHT22;5378;53.206;13.316;2024-01-11T02:26:15;0.00;99.90
10660;DHT22;5378;53.206;13.316;2024-01-11T02:29:02;0.10;99.90
10660;DHT22;5378;53.206;13.316;2024-01-11T02:31:49;0.20;99.90
10660;DHT22;5378;53.206;13.316;2024-01-11T02:34:37;0.20;99.90
10660;DHT22;5378;53.206;13.316;2024-01-11T02:37:24;0.20;99.90
10660;DHT22;5378;53.206;13.316;2024-01-11T02:40:12;0.30;99.90
10660;DHT22;5378;53.206;13.316;2024-01-11T02:43:09;0.10;99.90
10660;DHT22;5378;53.206;13.316;2024-01-11T02:45:56;0.10;99.90
10660;DHT22;5378;53.206;13.316;2024-01-11T02:48:44;0.10;99.90
10660;DHT22;5378;53.206;13.316;2024-01-11T02:51:31;0.20;99.90
10660;DHT22;5378;53.206;13.316;2024-01-11T02:54:18;0.30;99.90
10660;DHT22;5378;53.206;13.316;2024-01-11T02:57:05;0.20;99.90
10660;DHT22;5378;53.206;13.316;2024-01-11T02:59:53;0.40;99.90
10660;DHT22;5378;53.206;13.316;2024-01-11T03:02:40;0.30;99.90
10660;DHT22;5378;53.206;13.316;2024-01-11T03:05:27;0.20;99.90
10660;DHT22;5378;53.206;13.316;2024-01-11T03:08:14;0.30;99.90
10660;DHT22;5378;53.206;13.316;2024-01-11T03:11:01;0.30;99.90
10660;DHT22;5378;53.206;13.316;2024-01-11T03:13:48;0.10;99.90
10660;DHT22;5378;53.206;13.316;2024-01-11T03:16:36;0.10;99.90
10660;DHT22;5378;53.206;13.316;2024-01-11T03:19:23;0.20;99.90
10660;DHT22;5378;53.206;13.316;2024-01-11T03:22:11;0.20;99.90
10660;DHT22;5378;53.206;13.316;2024-01-11T03:24:58;0.30;99.90
10660;DHT22;5378;53.206;13.316;2024-01-11T03:27:45;0.40;99.90
10660;DHT22;5378;53.206;13.316;2024-01-11T03:30:32;0.40;99.90
10660;DHT22;5378;53.206;13.316;2024-01-11T03:33:21;0.40;99.90
10660;DHT22;5378;53.206;13.316;2024-01-11T03:36:08;0.30;99.90
10660;DHT22;5378;53.206;13.316;2024-01-11T03:38:56;0.40;99.90
10660;DHT22;5378;53.206;13.316;2024-01-11T03:41:43;0.40;99.90
10660;DHT22;5378;53.206;13.316;2024-01-11T03:44:30;0.40;99.90
10660;DHT22;5378;53.206;13.316;2024-01-11T03:47:18;0.30;99.90
10660;DHT22;5378;53.206;13.316;2024-01-11T03:50:07;0.30;99.90
10660;DHT22;5378;53.206;13.316;2024-01-11T03:52:54;0.40;99.90
10660;DHT22;5378;53.206;13.316;2024-01-11T03:55:41;0.50;99.90
10660;DHT22;5378;53.206;13.316;2024-01-11T03:58:28;0.60;99.90
10660;DHT22;5378;53.206;13.316;2024-01-11T04:01:15;0.70;99.90
10660;DHT22;5378;53.206;13.316;2024-01-11T04:04:03;0.60;99.90
10660;DHT22;5378;53.206;13.316;2024-01-11T04:06:51;0.60;99.90
10660;DHT22;5378;53.206;13.316;2024-01-11T04:09:38;0.50;99.90
10660;DHT22;5378;53.206;13.316;2024-01-11T04:12:25;0.50;99.90
10660;DHT22;5378;53.206;13.316;2024-01-11T04:15:12;0.60;99.90
10660;DHT22;5378;53.206;13.316;2024-01-11T04:17:59;0.50;99.90
10660;DHT22;5378;53.206;13.316;2024-01-11T04:20:47;0.40;99.90
10660;DHT22;5378;53.206;13.316;2024-01-11T04:23:35;0.30;99.90
10660;DHT22;5378;53.206;13.316;2024-01-11T04:26:22;0.50;99.90
10660;DHT22;5378;53.206;13.316;2024-01-11T04:29:09;0.60;99.90
10660;DHT22;5378;53.206;13.316;2024-01-11T04:31:57;0.50;99.90
10660;DHT22;5378;53.206;13.316;2024-01-11T04:34:44;0.60;99.90
10660;DHT22;5378;53.206;13.316;2024-01-11T04:37:31;0.60;99.90
10660;DHT22;5378;53.206;13.316;2024-01-11T04:40:22;0.70;99.90
10660;DHT22;5378;53.206;13.316;2024-01-11T04:43:09;0.60;99.90
10660;DHT22;5378;53.206;13.316;2024-01-11T04:45:56;0.70;99.90
10660;DHT22;5378;53.206;13.316;2024-01-11T04:48:43;0.70;99.90
10660;DHT22;5378;53.206;13.316;2024-01-11T04:51:31;0.70;99.90
10660;DHT22;5378;53.206;13.316;2024-01-11T04:54:18;0.50;99.90
10660;DHT22;5378;53.206;13.316;2024-01-11T04:57:06;0.50;99.90
10660;DHT22;5378;53.206;13.316;2024-01-11T04:59:53;0.60;99.90
10660;DHT22;5378;53.206;13.316;2024-01-11T05:02:40;0.70;99.90
10660;DHT22;5378;53.206;13.316;2024-01-11T05:05:27;0.70;99.90
10660;DHT22;5378;53.206;13.316;2024-01-11T05:08:14;0.70;99.90
10660;DHT22;5378;53.206;13.316;2024-01-11T05:11:01;0.70;99.90
10660;DHT22;5378;53.206;13.316;2024-01-11T05:13:51;0.70;99.90
10660;DHT22;5378;53.206;13.316;2024-01-11T05:16:38;0.80;99.90
10660;DHT22;5378;53.206;13.316;2024-01-11T05:19:26;0.90;99.90
10660;DHT22;5378;53.206;13.316;2024-01-11T05:22:13;0.80;99.90
10660;DHT22;5378;53.206;13.316;2024-01-11T05:25:00;0.80;99.90
10660;DHT22;5378;53.206;13.316;2024-01-11T05:27:47;0.80;99.90
10660;DHT22;5378;53.206;13.316;2024-01-11T05:30:36;0.70;99.90
10660;DHT22;5378;53.206;13.316;2024-01-11T05:33:23;0.80;99.90
10660;DHT22;5378;53.206;13.316;2024-01-11T05:36:10;0.70;99.90
10660;DHT22;5378;53.206;13.316;2024-01-11T05:38:57;0.80;99.90
10660;DHT22;5378;53.206;13.316;2024-01-11T05:41:44;0.80;99.90
10660;DHT22;5378;53.206;13.316;2024-01-11T05:44:31;0.70;99.90
10660;DHT22;5378;53.206;13.316;2024-01-11T05:47:20;0.70;99.90
10660;DHT22;5378;53.206;13.316;2024-01-11T05:50:07;0.80;99.90
10660;DHT22;5378;53.206;13.316;2024-01-11T05:52:54;0.70;99.90
10660;DHT22;5378;53.206;13.316;2024-01-11T05:55:42;0.90;99.90
10660;DHT22;5378;53.206;13.316;2024-01-11T05:58:29;1.00;99.90
10660;DHT22;5378;53.206;13.316;2024-01-11T06:01:17;1.00;99.90
10660;DHT22;5378;53.206;13.316;2024-01-11T06:04:05;1.10;99.90
10660;DHT22;5378;53.206;13.316;2024-01-11T06:06:52;1.00;99.90
10660;DHT22;5378;53.206;13.316;2024-01-11T06:09:39;1.20;99.90
10660;DHT22;5378;53.206;13.316;2024-01-11T06:12:26;1.00;99.90
10660;DHT22;5378;53.206;13.316;2024-01-11T06:15:13;1.10;99.90
10660;DHT22;5378;53.206;13.316;2024-01-11T06:18:00;1.00;99.90
10660;DHT22;5378;53.206;13.316;2024-01-11T06:20:49;1.00;99.90
10660;DHT22;5378;53.206;13.316;2024-01-11T06:23:36;1.20;99.90
10660;DHT22;5378;53.206;13.316;2024-01-11T06:26:23;1.20;99.90
10660;DHT22;5378;53.206;13.316;2024-01-11T06:29:10;1.20;99.90
10660;DHT22;5378;53.206;13.316;2024-01-11T06:31:57;1.20;99.90
10660;DHT22;5378;53.206;13.316;2024-01-11T06:34:44;1.30;99.90
10660;DHT22;5378;53.206;13.316;2024-01-11T06:37:34;1.20;99.90
10660;DHT22;5378;53.206;13.316;2024-01-11T06:40:21;1.30;99.90
10660;DHT22;5378;53.206;13.316;2024-01-11T06:43:08;1.20;99.90
10660;DHT22;5378;53.206;13.316;2024-01-11T06:45:55;1.10;99.90
10660;DHT22;5378;53.206;13.316;2024-01-11T06:48:42;1.10;99.90
10660;DHT22;5378;53.206;13.316;2024-01-11T06:51:30;1.20;99.90
10660;DHT22;5378;53.206;13.316;2024-01-11T06:54:18;1.10;99.90
10660;DHT22;5378;53.206;13.316;2024-01-11T06:57:05;1.10;99.90
10660;DHT22;5378;53.206;13.316;2024-01-11T06:59:52;1.20;99.90
10660;DHT22;5378;53.206;13.316;2024-01-11T07:02:39;1.10;99.90
10660;DHT22;5378;53.206;13.316;2024-01-11T07:05:27;1.10;99.90
10660;DHT22;5378;53.206;13.316;2024-01-11T07:08:15;1.20;99.90
10660;DHT22;5378;53.206;13.316;2024-01-11T07:11:03;1.20;99.90
10660;DHT22;5378;53.206;13.316;2024-01-11T07:13:50;1.20;99.90
10660;DHT22;5378;53.206;13.316;2024-01-11T07:16:37;1.30;99.90
10660;DHT22;5378;53.206;13.316;2024-01-11T07:19:25;1.20;99.90
10660;DHT22;5378;53.206;13.316;2024-01-11T07:22:12;1.20;99.90
10660;DHT22;5378;53.206;13.316;2024-01-11T07:24:59;1.20;99.90
10660;DHT22;5378;53.206;13.316;2024-01-11T07:27:47;1.20;99.90
10660;DHT22;5378;53.206;13.316;2024-01-11T07:30:34;1.30;99.90
10660;DHT22;5378;53.206;13.316;2024-01-11T07:33:21;1.30;99.90
10660;DHT22;5378;53.206;13.316;2024-01-11T07:36:08;1.30;99.90
10660;DHT22;5378;53.206;13.316;2024-01-11T07:38:56;1.30;99.90
10660;DHT22;5378;53.206;13.316;2024-01-11T07:41:43;1.40;99.90
10660;DHT22;5378;53.206;13.316;2024-01-11T07:44:32;1.40;99.90
10660;DHT22;5378;53.206;13.316;2024-01-11T07:47:19;1.30;99.90
10660;DHT22;5378;53.206;13.316;2024-01-11T07:50:07;1.40;99.90
10660;DHT22;5378;53.206;13.316;2024-01-11T07:52:55;1.60;99.90
10660;DHT22;5378;53.206;13.316;2024-01-11T07:55:42;1.80;99.90
10660;DHT22;5378;53.206;13.316;2024-01-11T07:58:29;1.70;99.90
10660;DHT22;5378;53.206;13.316;2024-01-11T08:01:18;1.60;99.90
10660;DHT22;5378;53.206;13.316;2024-01-11T08:04:05;1.70;99.90
10660;DHT22;5378;53.206;13.316;2024-01-11T08:06:52;1.70;99.90
10660;DHT22;5378;53.206;13.316;2024-01-11T08:09:39;1.50;99.90
10660;DHT22;5378;53.206;13.316;2024-01-11T08:12:31;1.70;99.90
10660;DHT22;5378;53.206;13.316;2024-01-11T08:15:19;1.60;99.90
10660;DHT22;5378;53.206;13.316;2024-01-11T08:18:07;1.80;99.90
10660;DHT22;5378;53.206;13.316;2024-01-11T08:20:54;1.70;99.90
10660;DHT22;5378;53.206;13.316;2024-01-11T08:23:41;1.80;99.90
10660;DHT22;5378;53.206;13.316;2024-01-11T08:26:30;1.90;99.90
10660;DHT22;5378;53.206;13.316;2024-01-11T08:29:17;1.70;99.90
10660;DHT22;5378;53.206;13.316;2024-01-11T08:32:05;1.90;99.90
10660;DHT22;5378;53.206;13.316;2024-01-11T08:34:58;1.90;99.90
10660;DHT22;5378;53.206;13.316;2024-01-11T08:37:45;2.10;99.90
10660;DHT22;5378;53.206;13.316;2024-01-11T08:40:32;2.10;99.90
10660;DHT22;5378;53.206;13.316;2024-01-11T08:43:19;2.20;99.90
10660;DHT22;5378;53.206;13.316;2024-01-11T08:46:06;2.30;99.90
10660;DHT22;5378;53.206;13.316;2024-01-11T08:48:53;2.20;99.90
10660;DHT22;5378;53.206;13.316;2024-01-11T08:51:43;2.00;99.90
10660;DHT22;5378;53.206;13.316;2024-01-11T08:54:30;1.90;99.90
10660;DHT22;5378;53.206;13.316;2024-01-11T08:57:18;1.60;99.90
10660;DHT22;5378;53.206;13.316;2024-01-11T09:00:06;1.60;99.90
10660;DHT22;5378;53.206;13.316;2024-01-11T09:02:53;1.60;99.90
10660;DHT22;5378;53.206;13.316;2024-01-11T09:05:40;1.70;99.90
10660;DHT22;5378;53.206;13.316;2024-01-11T09:08:29;1.80;99.90
10660;DHT22;5378;53.206;13.316;2024-01-11T09:11:17;1.90;99.90
10660;DHT22;5378;53.206;13.316;2024-01-11T09:14:04;1.80;99.90
10660;DHT22;5378;53.206;13.316;2024-01-11T09:16:51;1.90;99.90
10660;DHT22;5378;53.206;13.316;2024-01-11T09:19:38;2.00;99.90
10660;DHT22;5378;53.206;13.316;2024-01-11T09:22:26;2.00;99.90
10660;DHT22;5378;53.206;13.316;2024-01-11T09:25:15;1.70;99.90
10660;DHT22;5378;53.206;13.316;2024-01-11T09:28:03;1.70;99.90
10660;DHT22;5378;53.206;13.316;2024-01-11T09:30:50;1.70;99.90
10660;DHT22;5378;53.206;13.316;2024-01-11T09:33:37;1.60;99.90
10660;DHT22;5378;53.206;13.316;2024-01-11T09:36:24;1.60;99.90
10660;DHT22;5378;53.206;13.316;2024-01-11T09:39:12;1.70;99.90
10660;DHT22;5378;53.206;13.316;2024-01-11T09:42:06;1.80;99.90
10660;DHT22;5378;53.206;13.316;2024-01-11T09:44:53;1.80;99.90
10660;DHT22;5378;53.206;13.316;2024-01-11T09:47:41;1.80;99.90
10660;DHT22;5378;53.206;13.316;2024-01-11T09:50:31;1.80;99.90
10660;DHT22;5378;53.206;13.316;2024-01-11T09:53:19;1.90;99.90
10660;DHT22;5378;53.206;13.316;2024-01-11T09:56:09;1.80;99.90
10660;DHT22;5378;53.206;13.316;2024-01-11T09:58:58;1.90;99.90
10660;DHT22;5378;53.206;13.316;2024-01-11T10:01:45;2.10;99.90
10660;DHT22;5378;53.206;13.316;2024-01-11T10:04:33;2.20;99.90
10660;DHT22;5378;53.206;13.316;2024-01-11T10:07:22;2.30;99.90
10660;DHT22;5378;53.206;13.316;2024-01-11T10:10:10;2.30;99.90
10660;DHT22;5378;53.206;13.316;2024-01-11T10:13:01;2.20;99.90
10660;DHT22;5378;53.206;13.316;2024-01-11T10:15:49;2.30;99.90
10660;DHT22;5378;53.206;13.316;2024-01-11T10:18:36;2.10;99.90
10660;DHT22;5378;53.206;13.316;2024-01-11T10:21:24;2.10;99.90
10660;DHT22;5378;53.206;13.316;2024-01-11T10:24:17;2.10;99.90
10660;DHT22;5378;53.206;13.316;2024-01-11T10:27:08;2.20;99.90
10660;DHT22;5378;53.206;13.316;2024-01-11T10:29:55;2.10;99.90
10660;DHT22;5378;53.206;13.316;2024-01-11T10:32:44;2.10;99.90
10660;DHT22;5378;53.206;13.316;2024-01-11T10:35:31;2.10;99.90
10660;DHT22;5378;53.206;13.316;2024-01-11T10:38:18;2.10;99.90
10660;DHT22;5378;53.206;13.316;2024-01-11T10:41:06;2.20;99.90
10660;DHT22;5378;53.206;13.316;2024-01-11T10:43:54;2.20;99.90
10660;DHT22;5378;53.206;13.316;2024-01-11T10:46:44;2.20;99.90
10660;DHT22;5378;53.206;13.316;2024-01-11T10:49:33;2.10;99.90
10660;DHT22;5378;53.206;13.316;2024-01-11T10:52:28;2.20;99.90
10660;DHT22;5378;53.206;13.316;2024-01-11T10:55:21;2.30;99.90
10660;DHT22;5378;53.206;13.316;2024-01-11T10:58:09;2.40;99.90
10660;DHT22;5378;53.206;13.316;2024-01-11T11:00:57;2.40;99.90
10660;DHT22;5378;53.206;13.316;2024-01-11T11:03:46;2.40;99.90
10660;DHT22;5378;53.206;13.316;2024-01-11T11:06:36;2.50;99.90
10660;DHT22;5378;53.206;13.316;2024-01-11T11:09:25;2.50;99.90
10660;DHT22;5378;53.206;13.316;2024-01-11T11:12:14;2.40;99.90
10660;DHT22;5378;53.206;13.316;2024-01-11T11:15:04;2.50;99.90
10660;DHT22;5378;53.206;13.316;2024-01-11T11:17:52;2.40;99.90
10660;DHT22;5378;53.206;13.316;2024-01-11T11:20:39;2.50;99.90
10660;DHT22;5378;53.206;13.316;2024-01-11T11:23:29;2.50;99.90
10660;DHT22;5378;53.206;13.316;2024-01-11T11:26:16;2.60;99.90
10660;DHT22;5378;53.206;13.316;2024-01-11T11:29:04;2.60;99.90
10660;DHT22;5378;53.206;13.316;2024-01-11T11:31:51;2.60;99.90
10660;DHT22;5378;53.206;13.316;2024-01-11T11:34:40;2.60;99.90
10660;DHT22;5378;53.206;13.316;2024-01-11T11:37:29;2.60;99.90
10660;DHT22;5378;53.206;13.316;2024-01-11T11:40:19;2.70;99.90
10660;DHT22;5378;53.206;13.316;2024-01-11T11:43:07;2.80;99.90
10660;DHT22;5378;53.206;13.316;2024-01-11T11:45:56;2.80;99.90
10660;DHT22;5378;53.206;13.316;2024-01-11T11:48:50;2.80;99.90
10660;DHT22;5378;53.206;13.316;2024-01-11T11:51:39;2.80;99.90
10660;DHT22;5378;53.206;13.316;2024-01-11T11:54:27;2.90;99.90
10660;DHT22;5378;53.206;13.316;2024-01-11T12:42:34;1.60;99.90
10660;DHT22;5378;53.206;13.316;2024-01-11T12:45:21;2.70;99.90
10660;DHT22;5378;53.206;13.316;2024-01-11T12:48:08;2.70;99.90
10660;DHT22;5378;53.206;13.316;2024-01-11T12:50:59;2.70;99.90
10660;DHT22;5378;53.206;13.316;2024-01-11T12:53:51;2.80;99.90
10660;DHT22;5378;53.206;13.316;2024-01-11T12:56:41;2.70;99.90
10660;DHT22;5378;53.206;13.316;2024-01-11T12:59:31;2.80;99.90
10660;DHT22;5378;53.206;13.316;2024-01-11T13:02:19;2.90;99.90
10660;DHT22;5378;53.206;13.316;2024-01-11T13:05:06;2.90;99.90
10660;DHT22;5378;53.206;13.316;2024-01-11T13:07:54;2.90;99.90
10660;DHT22;5378;53.206;13.316;2024-01-11T13:10:42;3.00;99.90
10660;DHT22;5378;53.206;13.316;2024-01-11T13:13:29;2.90;99.90
10660;DHT22;5378;53.206;13.316;2024-01-11T13:16:17;2.90;99.90
10660;DHT22;5378;53.206;13.316;2024-01-11T13:19:05;2.90;99.90
10660;DHT22;5378;53.206;13.316;2024-01-11T13:21:58;2.90;99.90
10660;DHT22;5378;53.206;13.316;2024-01-11T13:24:45;3.00;99.90
10660;DHT22;5378;53.206;13.316;2024-01-11T13:27:32;3.00;99.90
10660;DHT22;5378;53.206;13.316;2024-01-11T13:30:19;3.10;99.90
10660;DHT22;5378;53.206;13.316;2024-01-11T13:33:09;3.20;99.90
10660;DHT22;5378;53.206;13.316;2024-01-11T13:35:56;2.90;99.90
10660;DHT22;5378;53.206;13.316;2024-01-11T13:38:43;2.80;99.90
10660;DHT22;5378;53.206;13.316;2024-01-11T13:41:30;2.90;99.90
10660;DHT22;5378;53.206;13.316;2024-01-11T13:44:17;3.00;99.90
10660;DHT22;5378;53.206;13.316;2024-01-11T13:47:05;3.00;99.90
10660;DHT22;5378;53.206;13.316;2024-01-11T13:49:54;3.10;99.90
10660;DHT22;5378;53.206;13.316;2024-01-11T13:52:41;3.00;99.90
10660;DHT22;5378;53.206;13.316;2024-01-11T13:55:28;3.10;99.90
10660;DHT22;5378;53.206;13.316;2024-01-11T13:58:23;3.00;99.90
10660;DHT22;5378;53.206;13.316;2024-01-11T14:01:10;2.90;99.90
10660;DHT22;5378;53.206;13.316;2024-01-11T14:03:58;3.00;99.90
10660;DHT22;5378;53.206;13.316;2024-01-11T14:06:46;3.00;99.90
10660;DHT22;5378;53.206;13.316;2024-01-11T14:09:33;3.00;99.90
10660;DHT22;5378;53.206;13.316;2024-01-11T14:12:20;3.00;99.90
10660;DHT22;5378;53.206;13.316;2024-01-11T14:15:09;3.00;99.90
10660;DHT22;5378;53.206;13.316;2024-01-11T14:17:57;3.00;99.90
10660;DHT22;5378;53.206;13.316;2024-01-11T14:20:44;2.90;99.90
10660;DHT22;5378;53.206;13.316;2024-01-11T14:23:33;2.90;99.90
10660;DHT22;5378;53.206;13.316;2024-01-11T14:26:20;2.90;99.90
10660;DHT22;5378;53.206;13.316;2024-01-11T14:29:07;2.80;99.90
10660;DHT22;5378;53.206;13.316;2024-01-11T14:31:54;2.80;99.90
10660;DHT22;5378;53.206;13.316;2024-01-11T14:34:41;2.80;99.90
10660;DHT22;5378;53.206;13.316;2024-01-11T14:37:30;2.90;99.90
10660;DHT22;5378;53.206;13.316;2024-01-11T14:40:19;2.70;99.90
10660;DHT22;5378;53.206;13.316;2024-01-11T14:43:06;2.70;99.90
10660;DHT22;5378;53.206;13.316;2024-01-11T14:45:55;2.80;99.90
10660;DHT22;5378;53.206;13.316;2024-01-11T14:48:41;2.80;99.90
10660;DHT22;5378;53.206;13.316;2024-01-11T14:51:28;2.80;99.90
10660;DHT22;5378;53.206;13.316;2024-01-11T14:54:19;2.80;99.90
10660;DHT22;5378;53.206;13.316;2024-01-11T14:57:08;2.90;99.90
10660;DHT22;5378;53.206;13.316;2024-01-11T14:59:55;2.90;99.90
10660;DHT22;5378;53.206;13.316;2024-01-11T15:02:42;3.00;99.90
10660;DHT22;5378;53.206;13.316;2024-01-11T15:05:31;3.00;99.90
10660;DHT22;5378;53.206;13.316;2024-01-11T15:08:18;3.00;99.90
10660;DHT22;5378;53.206;13.316;2024-01-11T15:11:05;3.00;99.90
10660;DHT22;5378;53.206;13.316;2024-01-11T15:13:53;2.90;99.90
10660;DHT22;5378;53.206;13.316;2024-01-11T15:16:40;3.00;99.90
10660;DHT22;5378;53.206;13.316;2024-01-11T15:19:30;2.90;99.90
10660;DHT22;5378;53.206;13.316;2024-01-11T15:22:16;2.80;99.90
10660;DHT22;5378;53.206;13.316;2024-01-11T15:25:04;2.70;99.90
10660;DHT22;5378;53.206;13.316;2024-01-11T15:27:53;2.80;99.90
10660;DHT22;5378;53.206;13.316;2024-01-11T15:30:41;2.70;99.90
10660;DHT22;5378;53.206;13.316;2024-01-11T15:33:28;2.60;99.90
10660;DHT22;5378;53.206;13.316;2024-01-11T15:36:15;2.60;99.90
10660;DHT22;5378;53.206;13.316;2024-01-11T15:39:02;2.60;99.90
10660;DHT22;5378;53.206;13.316;2024-01-11T15:41:53;2.70;99.90
10660;DHT22;5378;53.206;13.316;2024-01-11T15:44:40;2.60;99.90
10660;DHT22;5378;53.206;13.316;2024-01-11T15:47:28;2.60;99.90
10660;DHT22;5378;53.206;13.316;2024-01-11T15:50:17;2.70;99.90
10660;DHT22;5378;53.206;13.316;2024-01-11T15:53:04;2.70;99.90
10660;DHT22;5378;53.206;13.316;2024-01-11T15:55:52;2.80;99.90
10660;DHT22;5378;53.206;13.316;2024-01-11T15:58:39;2.80;99.90
10660;DHT22;5378;53.206;13.316;2024-01-11T16:01:26;2.80;99.90
10660;DHT22;5378;53.206;13.316;2024-01-11T16:04:14;2.80;99.90
10660;DHT22;5378;53.206;13.316;2024-01-11T16:07:02;2.70;99.90
10660;DHT22;5378;53.206;13.316;2024-01-11T16:09:49;2.80;99.90
10660;DHT22;5378;53.206;13.316;2024-01-11T16:12:36;2.70;99.90
10660;DHT22;5378;53.206;13.316;2024-01-11T16:15:24;2.80;99.90
10660;DHT22;5378;53.206;13.316;2024-01-11T16:18:11;2.80;99.90
10660;DHT22;5378;53.206;13.316;2024-01-11T16:20:59;2.90;99.90
10660;DHT22;5378;53.206;13.316;2024-01-11T16:23:46;2.90;99.90
10660;DHT22;5378;53.206;13.316;2024-01-11T16:26:33;2.80;99.90
10660;DHT22;5378;53.206;13.316;2024-01-11T16:29:21;2.80;99.90
10660;DHT22;5378;53.206;13.316;2024-01-11T16:32:08;2.80;99.90
10660;DHT22;5378;53.206;13.316;2024-01-11T16:34:56;2.60;99.90
10660;DHT22;5378;53.206;13.316;2024-01-11T16:37:44;2.60;99.90
10660;DHT22;5378;53.206;13.316;2024-01-11T16:40:31;2.60;99.90
10660;DHT22;5378;53.206;13.316;2024-01-11T16:43:18;2.70;99.90
10660;DHT22;5378;53.206;13.316;2024-01-11T16:46:05;2.90;99.90
10660;DHT22;5378;53.206;13.316;2024-01-11T16:48:51;3.00;99.90
10660;DHT22;5378;53.206;13.316;2024-01-11T16:51:41;2.90;99.90
10660;DHT22;5378;53.206;13.316;2024-01-11T16:54:31;2.80;99.90
10660;DHT22;5378;53.206;13.316;2024-01-11T16:57:19;2.90;99.90
10660;DHT22;5378;53.206;13.316;2024-01-11T17:00:06;2.90;99.90
10660;DHT22;5378;53.206;13.316;2024-01-11T17:02:53;3.00;99.90
10660;DHT22;5378;53.206;13.316;2024-01-11T17:05:41;3.00;99.90
10660;DHT22;5378;53.206;13.316;2024-01-11T17:08:28;3.00;99.90
10660;DHT22;5378;53.206;13.316;2024-01-11T17:11:17;3.00;99.90
10660;DHT22;5378;53.206;13.316;2024-01-11T17:14:04;3.00;99.90
10660;DHT22;5378;53.206;13.316;2024-01-11T17:16:51;3.00;99.90
10660;DHT22;5378;53.206;13.316;2024-01-11T17:19:38;3.10;99.90
10660;DHT22;5378;53.206;13.316;2024-01-11T17:22:26;3.10;99.90
10660;DHT22;5378;53.206;13.316;2024-01-11T17:25:13;3.10;99.90
10660;DHT22;5378;53.206;13.316;2024-01-11T17:28:01;3.00;99.90
10660;DHT22;5378;53.206;13.316;2024-01-11T17:30:48;3.10;99.90
10660;DHT22;5378;53.206;13.316;2024-01-11T17:33:35;3.20;99.90
10660;DHT22;5378;53.206;13.316;2024-01-11T17:36:22;3.20;99.90
10660;DHT22;5378;53.206;13.316;2024-01-11T17:39:13;3.20;99.90
10660;DHT22;5378;53.206;13.316;2024-01-11T17:42:00;3.20;99.90
10660;DHT22;5378;53.206;13.316;2024-01-11T17:44:48;3.10;99.90
10660;DHT22;5378;53.206;13.316;2024-01-11T17:47:35;3.20;99.90
10660;DHT22;5378;53.206;13.316;2024-01-11T17:50:22;3.10;99.90
10660;DHT22;5378;53.206;13.316;2024-01-11T17:53:08;3.20;99.90
10660;DHT22;5378;53.206;13.316;2024-01-11T17:55:55;3.10;99.90
10660;DHT22;5378;53.206;13.316;2024-01-11T17:58:43;3.20;99.90
10660;DHT22;5378;53.206;13.316;2024-01-11T18:01:35;3.30;99.90
10660;DHT22;5378;53.206;13.316;2024-01-11T18:04:22;3.20;99.90
10660;DHT22;5378;53.206;13.316;2024-01-11T18:07:09;3.20;99.90
10660;DHT22;5378;53.206;13.316;2024-01-11T18:09:56;3.20;99.90
10660;DHT22;5378;53.206;13.316;2024-01-11T18:12:43;3.20;99.90
10660;DHT22;5378;53.206;13.316;2024-01-11T18:15:30;3.30;99.90
10660;DHT22;5378;53.206;13.316;2024-01-11T18:18:19;3.30;99.90
10660;DHT22;5378;53.206;13.316;2024-01-11T18:21:06;3.20;99.90
10660;DHT22;5378;53.206;13.316;2024-01-11T18:23:53;3.30;99.90
10660;DHT22;5378;53.206;13.316;2024-01-11T18:26:40;3.20;99.90
10660;DHT22;5378;53.206;13.316;2024-01-11T18:29:27;3.20;99.90
10660;DHT22;5378;53.206;13.316;2024-01-11T18:32:14;3.10;99.90
10660;DHT22;5378;53.206;13.316;2024-01-11T18:35:03;3.10;99.90
10660;DHT22;5378;53.206;13.316;2024-01-11T18:37:50;3.20;99.90
10660;DHT22;5378;53.206;13.316;2024-01-11T18:40:37;3.20;99.90